createdAt,value
2023-03-10T00:00:00.618Z,98595.63
2023-03-10T00:02:50.480Z,98591.59
2023-03-10T00:05:41.992Z,98584.81
2023-03-10T00:08:27.174Z,98581.25
2023-03-10T00:11:17.573Z,98573.88
2023-03-10T00:13:58.393Z,98569.84
2023-03-10T00:16:45.056Z,98571.78
2023-03-10T00:19:38.296Z,98559.78
2023-03-10T00:22:24.750Z,98564.91
2023-03-10T00:25:15.642Z,98566.47
2023-03-10T00:28:07.419Z,98568.78
2023-03-10T00:30:48.876Z,98562.06
2023-03-10T00:33:38.301Z,98564.72
2023-03-10T00:36:30.815Z,98554.78
2023-03-10T00:39:13.568Z,98562.41
2023-03-10T00:42:08.373Z,98572.78
2023-03-10T00:44:54.831Z,98565.25
2023-03-10T00:50:53.425Z,98577.16
2023-03-10T00:53:34.752Z,98567.03
2023-03-10T00:56:18.465Z,98570.16
2023-03-10T00:59:01.196Z,98560.59
2023-03-10T01:01:50.623Z,98552.88
2023-03-10T01:04:37.384Z,98551.94
2023-03-10T01:07:18.693Z,98551.94
2023-03-10T01:10:00.443Z,98549.38
2023-03-10T01:12:47.396Z,98530.63
2023-03-10T01:15:28.418Z,98531.72
2023-03-10T01:18:26.181Z,98531.78
2023-03-10T01:21:12.420Z,98521.69
2023-03-10T01:23:56.251Z,98516.75
2023-03-10T01:26:41.953Z,98525.13
2023-03-10T01:29:22.599Z,98525.53
2023-03-10T01:32:17.006Z,98527.22
2023-03-10T01:35:05.410Z,98529.56
2023-03-10T01:37:49.636Z,98517.41
2023-03-10T01:40:33.446Z,98515.34
2023-03-10T01:43:59.157Z,98505.53
2023-03-10T01:46:59.512Z,98494.84
2023-03-10T01:50:06.492Z,98504.75
2023-03-10T01:52:56.660Z,98497.00
2023-03-10T01:55:51.414Z,98494.25
2023-03-10T01:58:40.437Z,98498.13
2023-03-10T02:01:28.381Z,98487.56
2023-03-10T02:04:25.277Z,98491.03
2023-03-10T02:07:11.548Z,98478.59
2023-03-10T02:10:00.471Z,98468.84
2023-03-10T02:12:49.616Z,98465.59
2023-03-10T02:15:33.181Z,98470.22
2023-03-10T02:18:26.954Z,98471.53
2023-03-10T02:21:28.500Z,98469.28
2023-03-10T02:24:41.213Z,98465.84
2023-03-10T02:27:33.406Z,98466.56
2023-03-10T02:30:24.578Z,98467.25
2023-03-10T02:33:19.527Z,98468.59
2023-03-10T02:36:15.487Z,98461.31
2023-03-10T02:39:01.171Z,98460.44
2023-03-10T02:41:53.441Z,98450.31
2023-03-10T02:44:36.779Z,98444.88
2023-03-10T02:47:18.391Z,98447.13
2023-03-10T02:50:13.501Z,98445.47
2023-03-10T02:53:16.399Z,98448.91
2023-03-10T02:56:09.176Z,98444.06
2023-03-10T02:58:57.543Z,98437.28
2023-03-10T03:01:47.221Z,98434.81
2023-03-10T03:04:29.056Z,98429.91
2023-03-10T03:07:17.954Z,98417.84
2023-03-10T03:10:04.574Z,98415.84
2023-03-10T03:12:56.267Z,98420.34
2023-03-10T03:15:39.380Z,98416.22
2023-03-10T03:18:25.844Z,98417.44
2023-03-10T03:21:23.694Z,98419.38
2023-03-10T03:24:18.097Z,98410.88
2023-03-10T03:26:59.779Z,98409.81
2023-03-10T03:29:39.650Z,98416.69
2023-03-10T03:32:33.818Z,98403.66
2023-03-10T03:35:17.283Z,98399.59
2023-03-10T03:38:06.402Z,98400.06
2023-03-10T03:40:55.422Z,98387.47
2023-03-10T03:43:50.814Z,98389.00
2023-03-10T03:46:42.174Z,98376.66
2023-03-10T03:49:29.178Z,98378.34
2023-03-10T03:52:13.470Z,98369.03
2023-03-10T03:55:02.167Z,98362.34
2023-03-10T03:57:45.781Z,98353.41
2023-03-10T04:00:36.399Z,98348.94
2023-03-10T04:03:33.774Z,98349.47
2023-03-10T04:06:13.451Z,98341.44
2023-03-10T04:09:00.975Z,98333.25
2023-03-10T04:11:44.089Z,98333.44
2023-03-10T04:14:33.970Z,98326.22
2023-03-10T04:17:18.407Z,98322.97
2023-03-10T04:20:07.520Z,98320.56
2023-03-10T04:22:59.529Z,98323.91
2023-03-10T04:25:46.373Z,98321.72
2023-03-10T04:28:31.639Z,98310.41
2023-03-10T04:31:16.637Z,98310.41
2023-03-10T04:34:02.606Z,98307.91
2023-03-10T04:36:48.898Z,98306.31
2023-03-10T04:39:33.433Z,98296.50
2023-03-10T04:42:14.303Z,98290.63
2023-03-10T04:44:52.193Z,98295.81
2023-03-10T04:47:50.764Z,98287.91
2023-03-10T04:50:31.492Z,98281.78
2023-03-10T04:53:15.380Z,98281.69
2023-03-10T04:56:01.246Z,98284.19
2023-03-10T04:58:47.308Z,98286.88
2023-03-10T05:01:39.074Z,98284.47
2023-03-10T05:04:27.462Z,98283.16
2023-03-10T05:07:15.848Z,98282.75
2023-03-10T05:10:07.395Z,98280.03
2023-03-10T05:12:57.777Z,98290.31
2023-03-10T05:15:52.906Z,98280.28
2023-03-10T05:18:46.608Z,98277.56
2023-03-10T05:21:41.192Z,98279.16
2023-03-10T05:24:27.616Z,98273.34
2023-03-10T05:27:15.213Z,98272.53
2023-03-10T05:29:57.153Z,98269.63
2023-03-10T05:32:43.475Z,98272.13
2023-03-10T05:35:29.421Z,98272.63
2023-03-10T05:38:13.156Z,98271.59
2023-03-10T05:40:57.455Z,98275.50
2023-03-10T05:43:43.988Z,98265.16
2023-03-10T05:46:36.641Z,98264.28
2023-03-10T05:49:20.243Z,98264.19
2023-03-10T05:52:07.423Z,98263.78
2023-03-10T05:54:57.041Z,98261.22
2023-03-10T05:57:46.399Z,98268.38
2023-03-10T06:00:30.215Z,98259.53
2023-03-10T06:03:40.716Z,98250.78
2023-03-10T06:06:30.215Z,98245.81
2023-03-10T06:09:17.315Z,98248.09
2023-03-10T06:12:07.311Z,98243.22
2023-03-10T06:14:51.302Z,98242.72
2023-03-10T06:17:38.403Z,98240.09
2023-03-10T06:20:24.842Z,98239.97
2023-03-10T06:23:16.393Z,98247.59
2023-03-10T06:26:11.503Z,98248.44
2023-03-10T06:28:50.402Z,98242.00
2023-03-10T06:31:37.619Z,98237.59
2023-03-10T06:34:24.130Z,98232.38
2023-03-10T06:37:08.322Z,98243.59
2023-03-10T06:39:50.113Z,98240.06
2023-03-10T06:42:34.657Z,98234.78
2023-03-10T06:45:20.358Z,98229.66
2023-03-10T06:48:01.850Z,98230.50
2023-03-10T06:50:55.921Z,98236.09
2023-03-10T06:53:45.222Z,98232.75
2023-03-10T06:56:27.451Z,98226.41
2023-03-10T06:59:11.354Z,98231.06
2023-03-10T07:02:03.592Z,98234.75
2023-03-10T07:04:45.384Z,98248.06
2023-03-10T07:07:38.834Z,98235.13
2023-03-10T07:10:22.631Z,98228.72
2023-03-10T07:13:17.422Z,98237.16
2023-03-10T07:16:00.861Z,98235.56
2023-03-10T07:18:53.660Z,98234.50
2023-03-10T07:21:54.616Z,98217.72
2023-03-10T07:24:42.425Z,98226.41
2023-03-10T07:27:46.361Z,98221.81
2023-03-10T07:30:37.437Z,98224.00
2023-03-10T07:33:18.330Z,98223.69
2023-03-10T07:36:03.893Z,98215.81
2023-03-10T07:38:59.536Z,98203.84
2023-03-10T07:41:42.550Z,98210.91
2023-03-10T07:44:33.328Z,98209.72
2023-03-10T07:47:14.592Z,98207.94
2023-03-10T07:49:59.437Z,98208.16
2023-03-10T07:52:37.429Z,98201.78
2023-03-10T07:55:21.254Z,98203.78
2023-03-10T07:58:28.264Z,98201.25
2023-03-10T08:01:39.473Z,98201.47
2023-03-10T08:04:32.243Z,98197.06
2023-03-10T08:07:38.224Z,98194.13
2023-03-10T08:10:25.427Z,98192.00
2023-03-10T08:13:06.500Z,98178.84
2023-03-10T08:15:54.263Z,98186.03
2023-03-10T08:18:35.822Z,98186.28
2023-03-10T08:21:20.025Z,98178.59
2023-03-10T08:24:10.100Z,98185.94
2023-03-10T08:26:56.806Z,98179.69
2023-03-10T08:29:48.837Z,98170.94
2023-03-10T08:32:44.377Z,98168.84
2023-03-10T08:35:36.437Z,98166.19
2023-03-10T08:38:26.809Z,98161.34
2023-03-10T08:41:16.628Z,98158.97
2023-03-10T08:44:04.082Z,98158.19
2023-03-10T08:46:46.605Z,98145.13
2023-03-10T08:49:46.970Z,98145.50
2023-03-10T08:52:30.433Z,98135.94
2023-03-10T08:55:18.434Z,98130.34
2023-03-10T08:58:01.794Z,98127.75
2023-03-10T09:00:58.579Z,98124.53
2023-03-10T09:03:52.663Z,98131.16
2023-03-10T09:06:51.490Z,98128.00
2023-03-10T09:09:32.498Z,98127.91
2023-03-10T09:12:17.500Z,98128.59
2023-03-10T09:15:08.835Z,98115.94
2023-03-10T09:17:49.449Z,98121.03
2023-03-10T09:20:30.093Z,98103.53
2023-03-10T09:23:11.220Z,98109.69
2023-03-10T09:26:07.461Z,98100.66
2023-03-10T09:29:02.116Z,98095.66
2023-03-10T09:31:50.439Z,98090.63
2023-03-10T09:34:30.619Z,98101.41
2023-03-10T09:37:20.492Z,98097.75
2023-03-10T09:40:01.105Z,98096.56
2023-03-10T09:42:43.439Z,98097.69
2023-03-10T09:45:31.997Z,98090.81
2023-03-10T09:48:36.400Z,98090.13
2023-03-10T09:51:22.418Z,98093.53
2023-03-10T09:54:50.522Z,98085.09
2023-03-10T09:57:39.413Z,98076.13
2023-03-10T10:00:37.278Z,98085.63
2023-03-10T10:03:52.213Z,98073.59
2023-03-10T10:06:34.262Z,98058.06
2023-03-10T10:09:43.462Z,98067.81
2023-03-10T10:12:26.771Z,98064.28
2023-03-10T10:15:12.392Z,98053.19
2023-03-10T10:18:40.119Z,98060.75
2023-03-10T10:21:42.293Z,98041.06
2023-03-10T10:24:28.439Z,98035.63
2023-03-10T10:27:06.396Z,98038.09
2023-03-10T10:29:56.372Z,98026.69
2023-03-10T10:32:55.463Z,98020.69
2023-03-10T10:35:39.582Z,98007.16
2023-03-10T10:38:46.374Z,98006.47
2023-03-10T10:41:40.692Z,98000.28
2023-03-10T10:44:26.522Z,97989.09
2023-03-10T10:47:40.155Z,97991.72
2023-03-10T10:50:26.301Z,97977.50
2023-03-10T10:53:31.826Z,97978.94
2023-03-10T10:56:19.385Z,97978.88
2023-03-10T10:59:33.270Z,97978.19
2023-03-10T11:02:50.398Z,97961.66
2023-03-10T11:05:46.489Z,97965.41
2023-03-10T11:08:32.997Z,97964.56
2023-03-10T11:11:49.927Z,97954.22
2023-03-10T11:15:13.427Z,97955.59
2023-03-10T11:18:26.394Z,97946.72
2023-03-10T11:21:30.515Z,97935.56
2023-03-10T11:24:17.703Z,97928.50
2023-03-10T11:27:22.684Z,97927.28
2023-03-10T11:30:46.118Z,97918.38
2023-03-10T11:34:16.672Z,97908.03
2023-03-10T11:37:32.260Z,97899.03
2023-03-10T11:40:35.498Z,97897.56
2023-03-10T11:43:45.722Z,97894.34
2023-03-10T11:46:45.393Z,97882.31
2023-03-10T11:49:29.432Z,97874.78
2023-03-10T11:52:14.890Z,97861.59
2023-03-10T11:55:21.298Z,97863.47
2023-03-10T11:58:00.652Z,97848.53
2023-03-10T12:00:55.400Z,97858.69
2023-03-10T12:03:40.607Z,97840.81
2023-03-10T12:06:42.768Z,97835.88
2023-03-10T12:09:48.171Z,97825.44
2023-03-10T12:12:43.242Z,97821.34
2023-03-10T12:15:51.105Z,97814.78
2023-03-10T12:18:47.669Z,97817.66
2023-03-10T12:21:31.879Z,97811.41
2023-03-10T12:24:40.559Z,97803.00
2023-03-10T12:27:19.452Z,97798.78
2023-03-10T12:30:05.309Z,97792.38
2023-03-10T12:32:59.035Z,97796.75
2023-03-10T12:35:55.620Z,97785.28
2023-03-10T12:38:58.421Z,97786.88
2023-03-10T12:41:54.941Z,97776.44
2023-03-10T12:44:51.845Z,97772.22
2023-03-10T12:47:46.006Z,97758.19
2023-03-10T12:50:38.295Z,97756.72
2023-03-10T12:54:00.485Z,97744.66
2023-03-10T12:56:53.318Z,97736.84
2023-03-10T12:59:43.475Z,97729.22
2023-03-10T13:02:38.395Z,97718.56
2023-03-10T13:05:33.343Z,97710.47
2023-03-10T13:08:26.324Z,97712.06
2023-03-10T13:11:16.390Z,97711.84
2023-03-10T13:14:16.392Z,97709.47
2023-03-10T13:17:16.433Z,97712.06
2023-03-10T13:20:15.453Z,97711.72
2023-03-10T13:23:11.496Z,97703.38
2023-03-10T13:26:01.497Z,97710.78
2023-03-10T13:28:59.192Z,97696.44
2023-03-10T13:32:02.396Z,97695.38
2023-03-10T13:34:41.429Z,97695.84
2023-03-10T13:37:24.023Z,97695.84
2023-03-10T13:40:17.566Z,97679.34
2023-03-10T13:43:21.322Z,97687.94
2023-03-10T13:46:04.125Z,97687.94
2023-03-10T13:48:44.003Z,97691.34
2023-03-10T13:51:39.469Z,97677.63
2023-03-10T13:54:50.260Z,97658.03
2023-03-10T13:57:53.385Z,97653.25
2023-03-10T14:00:33.902Z,97662.00
2023-03-10T14:03:23.480Z,97639.59
2023-03-10T14:06:24.815Z,97651.84
2023-03-10T14:09:24.974Z,97634.13
2023-03-10T14:12:08.100Z,97634.91
2023-03-10T14:14:53.905Z,97629.81
2023-03-10T14:17:42.410Z,97632.06
2023-03-10T14:20:37.253Z,97624.09
2023-03-10T14:23:41.060Z,97618.69
2023-03-10T14:26:22.742Z,97622.06
2023-03-10T14:29:23.804Z,97630.97
2023-03-10T14:32:21.613Z,97630.97
2023-03-10T14:35:08.545Z,97629.94
2023-03-10T14:37:55.414Z,97629.63
2023-03-10T14:40:50.447Z,97616.97
2023-03-10T14:43:32.392Z,97615.53
2023-03-10T14:46:16.581Z,97621.00
2023-03-10T14:48:57.739Z,97620.69
2023-03-10T14:51:41.392Z,97619.53
2023-03-10T14:54:22.995Z,97611.31
2023-03-10T14:57:03.451Z,97605.03
2023-03-10T14:59:47.687Z,97598.66
2023-03-10T15:02:32.863Z,97593.25
2023-03-10T15:05:18.672Z,97579.75
2023-03-10T15:08:05.413Z,97586.81
2023-03-10T15:11:01.113Z,97577.06
2023-03-10T15:13:48.414Z,97581.06
2023-03-10T15:16:29.100Z,97573.47
2023-03-10T15:19:18.824Z,97582.38
2023-03-10T15:21:58.647Z,97575.38
2023-03-10T15:24:44.414Z,97568.34
2023-03-10T15:27:33.632Z,97563.25
2023-03-10T15:30:23.445Z,97566.28
2023-03-10T15:33:06.964Z,97564.19
2023-03-10T15:35:54.342Z,97568.81
2023-03-10T15:39:05.064Z,97562.50
2023-03-10T15:41:51.801Z,97559.78
2023-03-10T15:44:32.910Z,97560.78
2023-03-10T15:47:25.519Z,97558.75
2023-03-10T15:50:18.187Z,97555.59
2023-03-10T15:53:18.199Z,97544.22
2023-03-10T15:55:57.388Z,97555.41
2023-03-10T15:58:39.926Z,97555.53
2023-03-10T16:01:40.936Z,97562.59
2023-03-10T16:04:23.700Z,97561.41
2023-03-10T16:07:17.452Z,97557.16
2023-03-10T16:10:07.350Z,97556.94
2023-03-10T16:12:53.308Z,97573.50
2023-03-10T16:15:43.491Z,97578.63
2023-03-10T16:18:32.093Z,97589.41
2023-03-10T16:21:18.427Z,97604.78
2023-03-10T16:24:12.549Z,97607.25
2023-03-10T16:26:59.757Z,97602.75
2023-03-10T16:29:43.874Z,97599.34
2023-03-10T16:32:46.547Z,97599.94
2023-03-10T16:35:33.854Z,97600.59
2023-03-10T16:38:17.724Z,97603.88
2023-03-10T16:41:15.349Z,97597.91
2023-03-10T16:43:59.257Z,97596.69
2023-03-10T16:46:42.905Z,97593.25
2023-03-10T16:49:41.652Z,97600.81
2023-03-10T16:52:23.717Z,97611.16
2023-03-10T16:55:08.404Z,97601.28
2023-03-10T16:57:53.704Z,97602.31
2023-03-10T17:00:40.484Z,97598.56
2023-03-10T17:03:40.749Z,97607.31
2023-03-10T17:06:28.728Z,97604.34
2023-03-10T17:09:17.903Z,97609.50
2023-03-10T17:12:08.442Z,97601.50
2023-03-10T17:14:50.904Z,97610.09
2023-03-10T17:17:37.432Z,97603.09
2023-03-10T17:20:26.550Z,97612.72
2023-03-10T17:23:27.770Z,97609.72
2023-03-10T17:26:15.007Z,97607.88
2023-03-10T17:28:54.918Z,97616.41
2023-03-10T17:31:50.835Z,97610.66
2023-03-10T17:34:44.124Z,97614.50
2023-03-10T17:37:30.113Z,97626.34
2023-03-10T17:40:19.054Z,97623.50
2023-03-10T17:43:12.941Z,97625.75
2023-03-10T17:46:13.898Z,97630.38
2023-03-10T17:49:01.028Z,97626.06
2023-03-10T17:51:46.047Z,97632.75
2023-03-10T17:54:28.024Z,97624.00
2023-03-10T17:57:22.388Z,97626.63
2023-03-10T18:00:21.731Z,97632.06
2023-03-10T18:03:07.436Z,97637.06
2023-03-10T18:05:56.903Z,97646.88
2023-03-10T18:08:38.795Z,97647.81
2023-03-10T18:11:25.011Z,97641.44
2023-03-10T18:14:25.929Z,97643.34
2023-03-10T18:17:12.701Z,97642.50
2023-03-10T18:19:55.667Z,97642.22
2023-03-10T18:22:38.054Z,97645.31
2023-03-10T18:25:27.682Z,97635.84
2023-03-10T18:28:11.487Z,97635.22
2023-03-10T18:31:02.500Z,97636.44
2023-03-10T18:33:47.956Z,97639.72
2023-03-10T18:36:30.953Z,97636.16
2023-03-10T18:39:15.447Z,97632.69
2023-03-10T18:42:00.537Z,97629.28
2023-03-10T18:45:00.539Z,97633.72
2023-03-10T18:47:53.378Z,97629.44
2023-03-10T18:50:40.180Z,97630.72
2023-03-10T18:53:26.410Z,97628.47
2023-03-10T18:56:12.990Z,97640.59
2023-03-10T18:58:57.495Z,97636.28
2023-03-10T19:01:40.316Z,97640.09
2023-03-10T19:04:31.993Z,97642.72
2023-03-10T19:07:30.157Z,97641.81
2023-03-10T19:10:15.423Z,97647.22
2023-03-10T19:13:03.708Z,97642.91
2023-03-10T19:15:45.474Z,97642.63
2023-03-10T19:18:36.704Z,97638.91
2023-03-10T19:21:10.019Z,97633.91
2023-03-10T19:24:00.807Z,97636.38
2023-03-10T19:26:49.549Z,97635.81
2023-03-10T19:29:22.506Z,97633.69
2023-03-10T19:32:07.927Z,97636.75
2023-03-10T19:34:54.096Z,97630.00
2023-03-10T19:37:34.937Z,97633.25
2023-03-10T19:40:20.696Z,97621.34
2023-03-10T19:42:59.703Z,97631.06
2023-03-10T19:45:46.450Z,97627.41
2023-03-10T19:48:38.853Z,97621.69
2023-03-10T19:51:24.645Z,97620.31
2023-03-10T19:54:08.484Z,97608.50
2023-03-10T19:56:53.267Z,97596.53
2023-03-10T19:59:33.386Z,97607.94
2023-03-10T20:02:26.345Z,97608.78
2023-03-10T20:05:05.426Z,97611.50
2023-03-10T20:07:46.161Z,97601.22
2023-03-10T20:10:27.631Z,97601.53
2023-03-10T20:13:08.208Z,97604.88
2023-03-10T20:15:49.324Z,97589.50
2023-03-10T20:18:27.197Z,97588.94
2023-03-10T20:21:12.245Z,97582.75
2023-03-10T20:23:48.608Z,97575.78
2023-03-10T20:26:29.931Z,97580.66
2023-03-10T20:29:10.433Z,97583.06
2023-03-10T20:31:55.968Z,97585.03
2023-03-10T20:34:37.372Z,97575.31
2023-03-10T20:37:15.538Z,97563.97
2023-03-10T20:39:58.732Z,97557.75
2023-03-10T20:42:47.518Z,97567.75
2023-03-10T20:45:25.410Z,97564.03
2023-03-10T20:48:06.612Z,97555.66
2023-03-10T20:50:51.112Z,97549.97
2023-03-10T20:53:35.191Z,97553.47
2023-03-10T20:56:17.160Z,97559.72
2023-03-10T20:59:02.393Z,97555.13
2023-03-10T21:01:42.765Z,97574.28
2023-03-10T21:04:17.600Z,97572.13
2023-03-10T21:07:01.456Z,97567.28
2023-03-10T21:09:45.233Z,97559.72
2023-03-10T21:12:32.091Z,97545.69
2023-03-10T21:15:12.408Z,97555.91
2023-03-10T21:17:53.341Z,97554.31
2023-03-10T21:20:36.436Z,97569.69
2023-03-10T21:23:20.318Z,97573.22
2023-03-10T21:25:58.176Z,97577.00
2023-03-10T21:28:36.257Z,97574.03
2023-03-10T21:31:17.032Z,97577.53
2023-03-10T21:33:54.696Z,97572.69
2023-03-10T21:36:43.418Z,97575.38
2023-03-10T21:39:23.204Z,97583.75
2023-03-10T21:42:01.557Z,97581.31
2023-03-10T21:44:42.676Z,97579.69
2023-03-10T21:47:29.384Z,97572.13
2023-03-10T21:50:10.106Z,97570.78
2023-03-10T21:52:56.861Z,97576.97
2023-03-10T21:55:37.434Z,97582.94
2023-03-10T21:58:18.470Z,97585.88
2023-03-10T22:01:02.535Z,97583.72
2023-03-10T22:03:43.022Z,97577.78
2023-03-10T22:06:22.139Z,97576.72
2023-03-10T22:09:08.097Z,97567.53
2023-03-10T22:11:48.525Z,97580.22
2023-03-10T22:14:24.042Z,97575.34
2023-03-10T22:17:06.203Z,97568.34
2023-03-10T22:19:41.613Z,97572.38
2023-03-10T22:22:25.427Z,97576.97
2023-03-10T22:24:58.274Z,97579.91
2023-03-10T22:27:33.491Z,97578.03
2023-03-10T22:30:10.390Z,97579.66
2023-03-10T22:32:51.116Z,97587.19
2023-03-10T22:35:24.180Z,97588.78
2023-03-10T22:38:02.523Z,97582.06
2023-03-10T22:40:40.758Z,97585.56
2023-03-10T22:43:21.776Z,97580.97
2023-03-10T22:46:02.246Z,97585.53
2023-03-10T22:48:40.475Z,97585.56
2023-03-10T22:51:27.036Z,97575.84
2023-03-10T22:54:02.463Z,97569.94
2023-03-10T22:56:42.324Z,97570.47
2023-03-10T22:59:23.331Z,97569.97
2023-03-10T23:02:05.719Z,97572.38
2023-03-10T23:04:48.717Z,97581.31
2023-03-10T23:07:24.558Z,97586.41
2023-03-10T23:10:02.981Z,97588.31
2023-03-10T23:12:41.401Z,97576.16
2023-03-10T23:15:39.459Z,97582.38
2023-03-10T23:18:22.634Z,97582.34
2023-03-10T23:21:00.307Z,97576.41
2023-03-10T23:23:55.343Z,97579.66
2023-03-10T23:26:39.075Z,97582.91
2023-03-10T23:29:25.254Z,97587.75
2023-03-10T23:32:10.277Z,97586.91
2023-03-10T23:34:53.315Z,97587.19
2023-03-10T23:37:55.055Z,97601.69
2023-03-10T23:40:39.710Z,97609.84
2023-03-10T23:43:21.024Z,97592.53
2023-03-10T23:46:14.630Z,97605.00
2023-03-10T23:49:00.772Z,97609.06
2023-03-10T23:51:45.247Z,97614.44
2023-03-10T23:54:34.950Z,97625.19
2023-03-10T23:57:25.383Z,97620.56
